Time;durP1;ratioP1;P1;durP2;ratioP2;P2;SDS_P1;SDS_P2;PMS_P1;PMS_P2;Temp;Humidity;BMP_temperature;BMP_pressure;BME280_temperature;BME280_humidity;BME280_pressure;Samples;Min_cycle;Max_cycle;Signal;HPM_P1;HPM_P2
2023/10/13 00:01:24;;;;;;;56.08;28.20;;;16.20;99.90;;;;;;5056406;28;20163;-76
2023/10/13 00:03:53;;;;;;;60.75;28.95;;;16.60;99.90;;;;;;5067570;28;20036;-77
2023/10/13 00:06:22;;;;;;;55.20;26.90;;;16.20;99.90;;;;;;5073614;28;20028;-77
2023/10/13 00:08:50;;;;;;;51.85;26.35;;;16.20;99.90;;;;;;5072930;28;20037;-76
2023/10/13 00:11:18;;;;;;;51.17;26.33;;;16.20;99.90;;;;;;5072045;28;20041;-77
2023/10/13 00:13:50;;;;;;;49.05;25.02;;;16.20;99.90;;;;;;5073096;28;20048;-77
2023/10/13 00:16:17;;;;;;;;;;;16.30;99.90;;;;;;5072365;28;20032;-77
2023/10/13 00:18:43;;;;;;;49.15;24.95;;;16.80;99.90;;;;;;5056627;28;19916;-77
2023/10/13 00:21:13;;;;;;;54.90;27.40;;;16.30;99.90;;;;;;5073781;28;20435;-77
2023/10/13 00:23:53;;;;;;;57.05;25.80;;;16.90;99.90;;;;;;5073340;28;20040;-76
2023/10/13 00:26:44;;;;;;;55.50;25.98;;;16.30;99.90;;;;;;5072983;28;20048;-77
2023/10/13 00:29:16;;;;;;;55.60;26.85;;;16.20;99.90;;;;;;5062141;28;20079;-77
2023/10/13 00:31:48;;;;;;;56.75;28.20;;;16.80;99.90;;;;;;5072976;28;20036;-77
2023/10/13 00:34:25;;;;;;;53.15;27.73;;;16.30;99.90;;;;;;5056101;28;20072;-77
2023/10/13 00:37:13;;;;;;;52.22;27.88;;;16.30;99.90;;;;;;5072949;28;20072;-77
2023/10/13 00:39:45;;;;;;;56.92;27.42;;;16.30;99.90;;;;;;5071657;28;20045;-77
2023/10/13 00:42:23;;;;;;;56.50;27.70;;;16.30;99.90;;;;;;5069281;28;20039;-76
2023/10/13 00:44:54;;;;;;;55.85;26.45;;;16.30;99.90;;;;;;5071753;28;20044;-77
2023/10/13 00:50:03;;;;;;;;;;;16.30;99.90;;;;;;5067834;28;20056;-78
2023/10/13 00:52:30;;;;;;;56.65;28.13;;;16.30;99.90;;;;;;5096569;28;19920;-77
2023/10/13 00:54:59;;;;;;;52.85;27.55;;;16.20;99.90;;;;;;5072358;28;20128;-76
2023/10/13 00:57:27;;;;;;;58.72;28.30;;;16.30;99.90;;;;;;5055206;28;20032;-76
2023/10/13 00:59:54;;;;;;;55.05;28.23;;;16.40;99.90;;;;;;5062661;28;20040;-76
2023/10/13 01:05:09;;;;;;;58.13;28.67;;;16.30;99.90;;;;;;5072399;28;20489;-76
2023/10/13 01:07:37;;;;;;;57.55;29.92;;;16.30;99.90;;;;;;5071799;28;20044;-76
2023/10/13 01:10:14;;;;;;;60.25;30.08;;;16.40;99.90;;;;;;5055017;28;20102;-76
2023/10/13 01:12:45;;;;;;;54.70;28.27;;;16.40;99.90;;;;;;5071943;28;20052;-76
2023/10/13 01:15:17;;;;;;;56.72;29.48;;;16.50;99.90;;;;;;5054494;28;20040;-76
2023/10/13 01:17:44;;;;;;;54.83;29.30;;;16.40;99.90;;;;;;5061075;28;20033;-76
2023/10/13 01:20:12;;;;;;;57.45;28.95;;;16.40;99.90;;;;;;5070816;28;20041;-76
2023/10/13 01:22:41;;;;;;;52.65;27.52;;;16.40;99.90;;;;;;5072976;28;20047;-76
2023/10/13 01:25:10;;;;;;;53.10;28.48;;;16.40;99.90;;;;;;5073220;28;20066;-76
2023/10/13 01:27:41;;;;;;;51.80;27.67;;;16.40;99.90;;;;;;5054298;28;20517;-76
2023/10/13 01:30:10;;;;;;;45.65;26.27;;;16.40;99.90;;;;;;5070812;28;20040;-76
2023/10/13 01:32:43;;;;;;;47.40;26.90;;;16.40;99.90;;;;;;5072517;28;20037;-76
2023/10/13 01:35:10;;;;;;;50.28;26.73;;;16.40;99.90;;;;;;5071257;28;20056;-77
2023/10/13 01:37:36;;;;;;;47.75;26.45;;;16.40;99.90;;;;;;5068574;28;20043;-77
2023/10/13 01:40:01;;;;;;;48.50;25.67;;;15.60;99.90;;;;;;5049444;28;20112;-77
2023/10/13 01:42:30;;;;;;;46.50;26.20;;;16.40;99.90;;;;;;5053343;28;20041;-77
2023/10/13 01:45:05;;;;;;;48.63;26.00;;;16.80;99.90;;;;;;5054270;28;20186;-77
2023/10/13 01:47:35;;;;;;;49.08;25.73;;;16.40;99.90;;;;;;5038927;28;20032;-76
2023/10/13 01:52:59;;;;;;;50.83;26.02;;;16.40;99.90;;;;;;5063765;28;20044;-77
2023/10/13 01:55:30;;;;;;;44.85;24.98;;;16.40;99.90;;;;;;5054204;28;20166;-77
2023/10/13 01:58:00;;;;;;;43.88;24.48;;;16.40;99.90;;;;;;5054921;28;20400;-77
2023/10/13 02:00:31;;;;;;;48.83;25.58;;;16.40;99.90;;;;;;5072531;28;20092;-78
2023/10/13 02:03:00;;;;;;;50.70;25.23;;;16.40;99.90;;;;;;5071153;28;20047;-77
2023/10/13 02:05:32;;;;;;;47.10;24.55;;;16.40;99.90;;;;;;5071283;28;20032;-76
2023/10/13 02:08:07;;;;;;;43.53;22.73;;;16.40;99.90;;;;;;5070757;28;20039;-76
2023/10/13 02:10:33;;;;;;;45.50;23.40;;;16.40;99.90;;;;;;5069346;28;20044;-77
2023/10/13 02:12:58;;;;;;;43.30;23.15;;;16.80;99.90;;;;;;5054094;28;20028;-77
2023/10/13 02:15:26;;;;;;;45.25;22.85;;;16.40;99.90;;;;;;5071870;28;20412;-76
2023/10/13 02:17:54;;;;;;;40.45;23.20;;;16.70;99.90;;;;;;5070471;28;20087;-77
2023/10/13 02:20:23;;;;;;;40.25;21.90;;;16.40;99.90;;;;;;5071812;28;20075;-76
2023/10/13 02:22:49;;;;;;;41.15;22.33;;;16.40;99.90;;;;;;5053694;28;20131;-76
2023/10/13 02:25:35;;;;;;;40.95;22.38;;;16.40;99.90;;;;;;5054198;28;20063;-76
2023/10/13 02:28:07;;;;;;;41.90;22.23;;;16.40;99.90;;;;;;5070192;28;20528;-76
2023/10/13 02:30:38;;;;;;;39.10;22.27;;;16.40;99.90;;;;;;5071016;28;20041;-76
2023/10/13 02:33:06;;;;;;;41.80;22.85;;;16.40;99.90;;;;;;5070608;28;20397;-77
2023/10/13 02:35:41;;;;;;;40.67;21.13;;;16.40;99.90;;;;;;5070156;28;20102;-76
2023/10/13 02:38:11;;;;;;;41.83;21.92;;;16.80;99.90;;;;;;5070717;28;20048;-76
2023/10/13 02:40:39;;;;;;;39.08;21.80;;;16.60;99.90;;;;;;5074637;28;20045;-76
2023/10/13 02:43:05;;;;;;;41.05;21.30;;;16.60;99.90;;;;;;5059448;28;20081;-76
2023/10/13 02:45:36;;;;;;;38.20;20.02;;;16.30;99.90;;;;;;5077187;28;20044;-77
2023/10/13 02:48:16;;;;;;;38.47;20.20;;;16.40;99.90;;;;;;5077181;28;20045;-76
2023/10/13 02:50:45;;;;;;;38.33;21.00;;;16.40;99.90;;;;;;5077353;28;20052;-76
2023/10/13 02:53:18;;;;;;;34.28;20.73;;;16.60;99.90;;;;;;5060617;28;20040;-76
2023/10/13 02:55:55;;;;;;;35.92;19.50;;;16.70;99.90;;;;;;5079049;28;20040;-76
2023/10/13 02:58:21;;;;;;;33.92;18.65;;;16.40;99.90;;;;;;5060275;28;20401;-76
2023/10/13 03:00:47;;;;;;;36.90;19.38;;;16.50;99.90;;;;;;5078822;28;20048;-76
2023/10/13 03:03:16;;;;;;;37.03;19.75;;;16.40;99.90;;;;;;5061096;28;20039;-76
2023/10/13 03:05:44;;;;;;;37.72;18.73;;;16.40;99.90;;;;;;5060652;28;20036;-76
2023/10/13 03:08:10;;;;;;;37.75;20.05;;;16.40;99.90;;;;;;5078011;28;20044;-76
2023/10/13 03:10:40;;;;;;;38.35;20.02;;;16.20;99.90;;;;;;5077616;28;20036;-76
2023/10/13 03:13:09;;;;;;;37.53;19.48;;;16.30;99.90;;;;;;5078620;28;20059;-77
2023/10/13 03:15:36;;;;;;;38.00;21.30;;;16.40;99.90;;;;;;5078115;28;20036;-76
2023/10/13 03:18:04;;;;;;;40.55;20.38;;;16.40;99.90;;;;;;5078883;28;20400;-76
2023/10/13 03:20:33;;;;;;;39.42;21.27;;;16.40;99.90;;;;;;5078308;28;20103;-76
2023/10/13 03:22:59;;;;;;;39.55;21.75;;;16.40;99.90;;;;;;5055803;28;20206;-76
2023/10/13 03:30:25;;;;;;;43.15;22.92;;;16.50;99.90;;;;;;5077490;28;20041;-76
2023/10/13 03:32:55;;;;;;;41.97;21.60;;;16.30;99.90;;;;;;5079249;28;20424;-76
2023/10/13 03:35:24;;;;;;;42.20;21.95;;;16.40;99.90;;;;;;5060504;28;20045;-76
2023/10/13 03:37:55;;;;;;;49.13;23.30;;;16.80;99.90;;;;;;5061567;28;20083;-76
2023/10/13 03:45:42;;;;;;;47.50;23.77;;;16.40;99.90;;;;;;5077105;28;20056;-76
2023/10/13 03:51:06;;;;;;;39.92;23.00;;;16.30;99.90;;;;;;5067816;28;20055;-76
2023/10/13 03:53:33;;;;;;;45.42;22.58;;;16.40;99.90;;;;;;5072251;28;20040;-76
2023/10/13 03:56:12;;;;;;;43.63;23.38;;;16.50;99.90;;;;;;5074620;28;20036;-76
2023/10/13 03:58:48;;;;;;;43.50;23.30;;;16.30;99.90;;;;;;5040209;28;20048;-76
2023/10/13 04:01:15;;;;;;;40.67;22.42;;;16.40;99.90;;;;;;5055285;28;20044;-76
2023/10/13 04:03:56;;;;;;;35.95;21.13;;;17.30;99.90;;;;;;5070353;28;20037;-76
2023/10/13 04:06:51;;;;;;;41.70;23.02;;;17.00;99.90;;;;;;5071767;28;20033;-76
2023/10/13 04:17:29;;;;;;;39.13;21.58;;;16.30;99.90;;;;;;5071886;28;20497;-76
2023/10/13 04:36:14;;;;;;;38.58;21.85;;;16.30;99.90;;;;;;5066210;28;20497;-75
2023/10/13 04:38:59;;;;;;;36.83;20.55;;;16.40;99.90;;;;;;5069891;28;20064;-76
2023/10/13 04:41:43;;;;;;;34.50;20.00;;;16.30;99.90;;;;;;5074160;28;20032;-76
2023/10/13 04:51:59;;;;;;;30.17;17.73;;;16.20;99.90;;;;;;5064836;28;20051;-75
2023/10/13 04:54:45;;;;;;;28.65;16.88;;;16.20;99.90;;;;;;5073266;28;20079;-76
2023/10/13 04:57:32;;;;;;;28.92;17.77;;;16.20;99.90;;;;;;5069668;28;20051;-75
2023/10/13 06:30:17;;;;;;;16.02;8.35;;;16.40;99.90;;;;;;5068839;28;20045;-75
2023/10/13 06:32:43;;;;;;;12.73;8.00;;;16.20;99.90;;;;;;5070634;28;20049;-76
2023/10/13 06:35:08;;;;;;;13.15;7.50;;;16.20;99.90;;;;;;5066787;28;20056;-76
2023/10/13 06:37:36;;;;;;;14.02;7.70;;;16.20;99.90;;;;;;5071256;28;20409;-75
2023/10/13 06:42:55;;;;;;;12.27;7.18;;;16.30;99.90;;;;;;5064560;28;20068;-75
2023/10/13 06:45:21;;;;;;;15.35;6.50;;;16.40;99.90;;;;;;5067492;28;20102;-75
2023/10/13 06:47:52;;;;;;;11.32;5.97;;;16.40;99.90;;;;;;5067340;28;20068;-75
2023/10/13 06:50:24;;;;;;;10.32;6.32;;;16.40;99.90;;;;;;5069519;28;20048;-76
2023/10/13 06:52:50;;;;;;;12.82;5.80;;;16.10;99.90;;;;;;5065233;28;20041;-76
2023/10/13 06:55:17;;;;;;;12.70;5.95;;;16.40;99.90;;;;;;5070625;28;20045;-77
2023/10/13 06:57:44;;;;;;;9.13;5.40;;;16.50;99.90;;;;;;5070339;28;20044;-76
2023/10/13 07:00:27;;;;;;;11.98;5.57;;;16.60;99.90;;;;;;5069363;28;20048;-76
2023/10/13 07:02:53;;;;;;;11.52;5.55;;;16.50;99.90;;;;;;5063147;28;20082;-76
2023/10/13 07:05:19;;;;;;;13.35;5.53;;;16.50;99.90;;;;;;5057244;28;20048;-76
2023/10/13 07:07:45;;;;;;;10.68;5.68;;;16.50;99.90;;;;;;5064338;28;20096;-76
2023/10/13 07:10:12;;;;;;;14.90;5.88;;;16.50;99.90;;;;;;5058704;28;20521;-76
2023/10/13 07:12:43;;;;;;;11.07;4.93;;;16.60;99.90;;;;;;5067601;28;20773;-76
2023/10/13 07:17:46;;;;;;;15.38;6.03;;;16.60;99.90;;;;;;5065513;28;20526;-76
2023/10/13 07:20:15;;;;;;;12.15;5.90;;;16.60;99.90;;;;;;5052588;28;20041;-76
2023/10/13 07:22:57;;;;;;;12.52;6.05;;;16.60;99.90;;;;;;5070262;28;20115;-75
2023/10/13 07:25:26;;;;;;;13.30;5.68;;;16.60;99.90;;;;;;5066806;28;20090;-76
2023/10/13 07:27:54;;;;;;;13.93;5.93;;;16.60;99.90;;;;;;5083656;28;20036;-76
2023/10/13 07:30:26;;;;;;;15.57;6.13;;;16.60;99.90;;;;;;5073855;28;20276;-76
2023/10/13 07:32:53;;;;;;;12.73;5.60;;;17.20;99.90;;;;;;5056268;28;20411;-76
2023/10/13 07:35:26;;;;;;;12.70;5.90;;;16.60;99.90;;;;;;5071959;28;20451;-75
2023/10/13 07:37:55;;;;;;;16.60;6.65;;;16.70;99.90;;;;;;5067353;28;20036;-75
2023/10/13 07:40:50;;;;;;;13.55;6.38;;;16.60;99.90;;;;;;5055710;28;20039;-76
2023/10/13 07:43:12;;;;;;;13.85;6.47;;;16.70;99.90;;;;;;5065921;28;20083;-75
2023/10/13 07:45:40;;;;;;;18.08;6.90;;;16.70;99.90;;;;;;5072693;28;20433;-76
2023/10/13 07:48:16;;;;;;;16.63;6.63;;;16.70;99.90;;;;;;5040030;28;20158;-76
2023/10/13 07:50:45;;;;;;;17.65;7.75;;;16.70;99.90;;;;;;5069469;28;20424;-77
2023/10/13 07:53:22;;;;;;;17.98;7.70;;;16.70;99.90;;;;;;5066334;28;20041;-76
2023/10/13 07:55:55;;;;;;;18.75;7.18;;;16.70;99.90;;;;;;5063285;28;20110;-75
2023/10/13 07:58:27;;;;;;;21.45;7.72;;;16.70;99.90;;;;;;5067911;28;20044;-75
2023/10/13 08:01:16;;;;;;;20.15;7.10;;;16.70;99.90;;;;;;5064491;28;20040;-76
2023/10/13 08:03:44;;;;;;;19.77;6.97;;;16.60;99.90;;;;;;5072076;28;20063;-75
2023/10/13 08:06:26;;;;;;;26.33;7.35;;;16.70;99.90;;;;;;5064747;28;20029;-75
2023/10/13 08:08:57;;;;;;;16.58;7.50;;;16.70;99.90;;;;;;5066284;28;20048;-76
2023/10/13 08:19:17;;;;;;;15.27;7.97;;;16.70;99.90;;;;;;5073698;28;20047;-75
2023/10/13 08:21:57;;;;;;;16.63;7.82;;;16.80;99.90;;;;;;5071152;28;20121;-76
2023/10/13 08:37:32;;;;;;;18.27;8.77;;;16.90;99.90;;;;;;5047500;28;20049;-76
2023/10/13 08:50:52;;;;;;;17.73;8.73;;;17.20;99.90;;;;;;5071556;28;20071;-77
2023/10/13 08:56:13;;;;;;;13.18;8.52;;;17.30;99.90;;;;;;5072746;28;20059;-76
2023/10/13 09:09:26;;;;;;;17.85;7.95;;;17.60;99.90;;;;;;5070401;28;20059;-76
2023/10/13 09:12:08;;;;;;;15.73;7.57;;;17.70;99.90;;;;;;5063813;28;20051;-77
2023/10/13 09:14:47;;;;;;;17.08;7.40;;;17.80;99.90;;;;;;5068470;28;20040;-76
2023/10/13 09:19:55;;;;;;;16.52;7.10;;;17.90;99.90;;;;;;5065426;28;20129;-76
2023/10/13 09:22:27;;;;;;;12.63;7.10;;;17.90;99.90;;;;;;5067292;28;20107;-77
2023/10/13 09:24:58;;;;;;;15.90;7.25;;;18.00;99.90;;;;;;5065203;28;20048;-76
2023/10/13 09:27:32;;;;;;;18.08;8.02;;;18.00;99.90;;;;;;5070907;28;20045;-76
2023/10/13 09:30:24;;;;;;;16.92;7.28;;;18.00;99.90;;;;;;5072254;28;20040;-76
2023/10/13 09:33:04;;;;;;;15.23;7.15;;;18.00;99.90;;;;;;5060929;28;20052;-76
2023/10/13 09:35:33;;;;;;;17.98;7.90;;;18.00;99.90;;;;;;5070108;28;20482;-76
2023/10/13 09:38:02;;;;;;;20.52;7.13;;;18.30;99.90;;;;;;5071000;28;20111;-76
2023/10/13 09:40:38;;;;;;;21.13;7.40;;;18.00;99.90;;;;;;5071002;28;20117;-76
2023/10/13 09:43:07;;;;;;;19.17;7.55;;;18.00;99.90;;;;;;5066551;28;20530;-76
2023/10/13 09:45:39;;;;;;;17.63;7.25;;;18.00;99.90;;;;;;5071292;28;20485;-76
2023/10/13 09:48:16;;;;;;;14.80;7.30;;;18.00;99.90;;;;;;5065598;28;20056;-76
2023/10/13 09:50:45;;;;;;;14.55;6.80;;;18.90;99.90;;;;;;5052911;28;20044;-76
2023/10/13 09:53:13;;;;;;;13.45;6.82;;;18.00;99.90;;;;;;5067818;28;20044;-75
2023/10/13 09:55:46;;;;;;;13.63;6.38;;;18.10;99.90;;;;;;5071162;28;20163;-75
2023/10/13 09:58:17;;;;;;;;;;;18.10;99.90;;;;;;5072475;28;20043;-76
2023/10/13 10:00:50;;;;;;;17.58;6.85;;;18.10;99.90;;;;;;5071888;28;19925;-76
2023/10/13 10:06:30;;;;;;;18.25;6.28;;;18.20;99.90;;;;;;4954201;28;20055;-76
2023/10/13 10:09:15;;;;;;;16.27;6.18;;;18.20;99.90;;;;;;5042614;28;20048;-76
2023/10/13 10:12:01;;;;;;;14.38;6.40;;;18.30;99.90;;;;;;5070999;28;20036;-76
2023/10/13 10:15:05;;;;;;;17.85;6.25;;;18.30;99.90;;;;;;5067206;28;20048;-76
2023/10/13 10:17:42;;;;;;;14.65;6.47;;;18.40;99.90;;;;;;5069553;28;20040;-76
2023/10/13 10:20:20;;;;;;;13.43;6.75;;;18.40;99.90;;;;;;5071096;28;20050;-76
2023/10/13 10:23:00;;;;;;;18.58;7.20;;;18.40;99.90;;;;;;5063211;28;20611;-77
2023/10/13 10:25:29;;;;;;;;;;;18.40;99.90;;;;;;5069955;28;20427;-76
2023/10/13 10:27:56;;;;;;;18.15;7.63;;;18.70;99.90;;;;;;5098664;28;19924;-76
2023/10/13 10:30:27;;;;;;;19.67;6.82;;;18.40;99.90;;;;;;5086399;28;20083;-76
2023/10/13 10:33:01;;;;;;;20.83;6.97;;;18.50;99.90;;;;;;5069523;28;20475;-76
2023/10/13 10:35:32;;;;;;;15.77;6.18;;;18.50;99.90;;;;;;5069518;28;20102;-77
2023/10/13 10:38:11;;;;;;;16.83;6.30;;;18.50;99.90;;;;;;5070891;28;20037;-76
2023/10/13 10:40:56;;;;;;;18.83;7.97;;;18.50;99.90;;;;;;5071073;28;20106;-76
2023/10/13 10:43:41;;;;;;;18.48;6.93;;;18.50;99.90;;;;;;5070674;28;20037;-76
2023/10/13 10:46:12;;;;;;;15.65;6.80;;;18.60;99.90;;;;;;5071066;28;20047;-76
2023/10/13 10:48:42;;;;;;;20.05;7.18;;;18.50;99.90;;;;;;5052861;28;20044;-76
2023/10/13 10:51:21;;;;;;;18.02;6.35;;;18.90;99.90;;;;;;5070466;28;20033;-76
2023/10/13 10:53:49;;;;;;;19.35;6.78;;;18.50;99.90;;;;;;5054617;28;20696;-76
2023/10/13 10:59:00;;;;;;;17.00;6.63;;;18.70;99.90;;;;;;5064857;28;20489;-76
2023/10/13 11:01:33;;;;;;;19.35;6.88;;;18.60;99.90;;;;;;5072141;28;20029;-76
2023/10/13 11:04:33;;;;;;;14.45;6.88;;;18.60;99.90;;;;;;5098181;28;20562;-76
2023/10/13 11:06:59;;;;;;;16.33;6.40;;;18.90;99.90;;;;;;5074652;28;20036;-76
2023/10/13 11:10:05;;;;;;;12.52;6.05;;;18.70;99.90;;;;;;5074254;28;20392;-76
2023/10/13 11:14:50;;;;;;;21.80;6.88;;;18.70;99.90;;;;;;5064835;28;20142;-76
2023/10/13 11:17:38;;;;;;;18.73;7.07;;;18.70;99.90;;;;;;5071043;28;20036;-77
2023/10/13 11:20:17;;;;;;;20.10;7.25;;;19.20;99.90;;;;;;5069500;28;20521;-76
2023/10/13 11:22:49;;;;;;;19.13;6.53;;;18.80;99.90;;;;;;5073208;28;20051;-76
2023/10/13 11:25:29;;;;;;;20.27;6.78;;;18.80;99.90;;;;;;5074143;28;20044;-76
2023/10/13 11:27:56;;;;;;;14.70;6.55;;;18.80;99.90;;;;;;5066881;28;20044;-76
2023/10/13 11:30:29;;;;;;;17.77;6.45;;;18.90;99.90;;;;;;5073954;28;20072;-77
2023/10/13 11:33:05;;;;;;;15.60;6.72;;;19.00;99.90;;;;;;5100941;28;20055;-77
2023/10/13 11:38:49;;;;;;;18.92;6.68;;;19.20;99.90;;;;;;5010036;28;20081;-78
2023/10/13 11:41:16;;;;;;;17.05;6.32;;;19.30;99.90;;;;;;5061753;28;20044;-77
2023/10/13 11:43:52;;;;;;;16.02;6.70;;;19.30;99.90;;;;;;5072272;28;20119;-77
2023/10/13 11:46:55;;;;;;;16.80;6.60;;;19.30;99.90;;;;;;5069599;28;20517;-77
2023/10/13 11:49:17;;;;;;;17.35;7.00;;;19.30;99.90;;;;;;5073430;28;20526;-77
2023/10/13 11:51:48;;;;;;;12.32;6.20;;;19.30;99.90;;;;;;5070298;28;20037;-77
2023/10/13 11:54:17;;;;;;;14.60;6.38;;;19.30;99.90;;;;;;5055192;28;20073;-76
2023/10/13 11:56:44;;;;;;;20.13;6.90;;;19.30;99.90;;;;;;5064307;28;20115;-77
2023/10/13 11:59:17;;;;;;;14.75;6.60;;;19.10;99.90;;;;;;5073502;28;20090;-77
2023/10/13 12:04:41;;;;;;;13.15;6.65;;;19.20;99.90;;;;;;5071924;28;20044;-77
2023/10/13 12:07:20;;;;;;;15.65;7.13;;;19.20;99.90;;;;;;5073376;28;20230;-76
2023/10/13 12:12:31;;;;;;;21.92;6.93;;;19.30;99.90;;;;;;5072097;28;20136;-77
2023/10/13 12:14:57;;;;;;;18.92;7.28;;;19.20;99.90;;;;;;5071344;28;20733;-76
2023/10/13 12:17:27;;;;;;;16.80;6.80;;;19.30;99.90;;;;;;5062911;28;20036;-76
2023/10/13 12:19:54;;;;;;;17.83;7.28;;;19.30;99.90;;;;;;5069556;28;20421;-76
2023/10/13 12:22:35;;;;;;;18.83;6.55;;;19.30;99.90;;;;;;5071931;28;20127;-77
2023/10/13 12:25:05;;;;;;;17.35;6.70;;;19.30;99.90;;;;;;5067466;28;20040;-76
2023/10/13 12:27:45;;;;;;;23.25;6.72;;;19.20;99.90;;;;;;5075389;28;20055;-76
2023/10/13 12:30:13;;;;;;;23.02;6.50;;;19.40;99.90;;;;;;5071108;28;20550;-76
2023/10/13 12:32:44;;;;;;;19.80;6.65;;;19.30;99.90;;;;;;5073067;28;20307;-76
2023/10/13 12:54:16;;;;;;;14.45;5.82;;;19.60;99.90;;;;;;5067255;28;20048;-77
2023/10/13 12:56:45;;;;;;;16.92;6.35;;;20.20;99.90;;;;;;5073111;28;20038;-77
2023/10/13 12:59:13;;;;;;;19.02;6.32;;;19.70;99.90;;;;;;5071927;28;20041;-77
2023/10/13 13:01:43;;;;;;;19.55;6.72;;;19.60;99.90;;;;;;5073053;28;20036;-77
2023/10/13 13:04:20;;;;;;;16.48;6.43;;;19.80;99.90;;;;;;5072740;28;20089;-78
2023/10/13 13:06:50;;;;;;;17.70;6.10;;;19.90;99.90;;;;;;5070693;28;20409;-78
2023/10/13 13:09:25;;;;;;;15.30;6.43;;;20.40;99.90;;;;;;5055079;28;20044;-78
2023/10/13 13:11:57;;;;;;;15.27;6.85;;;20.40;99.90;;;;;;5064310;28;20056;-78
2023/10/13 13:14:29;;;;;;;22.20;6.82;;;19.90;99.90;;;;;;5071060;28;20041;-78
2023/10/13 13:17:07;;;;;;;;;;;20.30;99.90;;;;;;5071740;28;20040;-77
2023/10/13 13:19:40;;;;;;;17.50;6.85;;;19.90;99.90;;;;;;5070855;28;20006;-78
2023/10/13 13:22:12;;;;;;;21.73;7.72;;;20.00;99.90;;;;;;5066041;28;20033;-78
2023/10/13 13:24:45;;;;;;;20.38;6.65;;;20.00;99.90;;;;;;5070570;28;20045;-78
2023/10/13 13:27:13;;;;;;;14.27;6.40;;;20.00;99.90;;;;;;5072339;28;20439;-78
2023/10/13 13:29:42;;;;;;;20.35;7.15;;;20.00;99.90;;;;;;5071170;28;20097;-78
2023/10/13 13:32:18;;;;;;;21.58;6.68;;;20.10;99.90;;;;;;5055012;28;20043;-78
2023/10/13 13:35:07;;;;;;;16.45;6.72;;;19.90;99.90;;;;;;5066136;28;20045;-78
2023/10/13 13:37:34;;;;;;;24.92;7.00;;;19.90;99.90;;;;;;5064237;28;20041;-77
2023/10/13 13:40:15;;;;;;;15.80;6.72;;;19.90;99.90;;;;;;5052105;28;20086;-77
2023/10/13 13:42:45;;;;;;;19.20;7.07;;;19.30;99.90;;;;;;5070330;28;20370;-77
2023/10/13 13:45:21;;;;;;;16.30;7.07;;;19.70;99.90;;;;;;5053824;28;20044;-76
2023/10/13 13:47:53;;;;;;;17.55;7.20;;;19.60;99.90;;;;;;5057709;28;20451;-76
2023/10/13 13:50:30;;;;;;;20.35;8.23;;;19.40;99.90;;;;;;5071213;28;20037;-76
2023/10/13 13:52:56;;;;;;;15.73;7.40;;;19.30;99.90;;;;;;5070633;28;20690;-75
2023/10/13 13:55:23;;;;;;;19.88;7.72;;;19.20;99.90;;;;;;5071160;28;20102;-76
2023/10/13 13:57:50;;;;;;;19.30;7.82;;;19.10;99.90;;;;;;5053806;28;20062;-76
2023/10/13 14:00:36;;;;;;;17.67;8.10;;;19.30;99.90;;;;;;5070153;28;20089;-75
2023/10/13 14:03:03;;;;;;;21.45;7.90;;;18.90;99.90;;;;;;5066135;28;20057;-76
2023/10/13 14:05:29;;;;;;;17.95;8.35;;;18.90;99.90;;;;;;5070157;28;20040;-75
2023/10/13 14:07:55;;;;;;;19.80;7.10;;;18.80;99.90;;;;;;5064776;28;20074;-75
2023/10/13 14:10:33;;;;;;;17.80;7.57;;;18.80;99.90;;;;;;5071250;28;20051;-76
2023/10/13 14:13:13;;;;;;;19.23;8.88;;;18.70;99.90;;;;;;5046054;28;20044;-76
2023/10/13 14:15:46;;;;;;;16.90;7.88;;;18.70;99.90;;;;;;5068047;28;20049;-76
2023/10/13 14:18:17;;;;;;;19.85;8.27;;;18.70;99.90;;;;;;5085843;28;20554;-76
2023/10/13 14:20:43;;;;;;;18.67;8.13;;;18.70;99.90;;;;;;5067006;28;20093;-76
2023/10/13 14:23:11;;;;;;;23.42;8.35;;;18.70;99.90;;;;;;5064473;28;20036;-75
2023/10/13 14:25:38;;;;;;;20.55;7.85;;;18.70;99.90;;;;;;5063224;28;20036;-76
2023/10/13 14:28:07;;;;;;;18.70;7.65;;;18.60;99.90;;;;;;5067218;28;20048;-75
2023/10/13 14:30:33;;;;;;;21.30;8.27;;;18.60;99.90;;;;;;5069233;28;20036;-76
2023/10/13 14:32:59;;;;;;;19.13;8.15;;;18.60;99.90;;;;;;5065441;28;20088;-76
2023/10/13 14:35:25;;;;;;;20.05;8.10;;;19.10;99.90;;;;;;5047973;28;20473;-75
2023/10/13 14:37:52;;;;;;;22.55;8.23;;;18.60;99.90;;;;;;5064445;28;20397;-75
2023/10/13 14:40:21;;;;;;;18.00;8.52;;;18.70;99.90;;;;;;5061892;28;20047;-76
2023/10/13 14:42:47;;;;;;;20.25;8.10;;;18.60;99.90;;;;;;5063405;28;20909;-76
2023/10/13 14:45:16;;;;;;;18.33;8.30;;;19.00;99.90;;;;;;5065108;28;20061;-76
2023/10/13 14:47:42;;;;;;;19.05;8.38;;;18.60;99.90;;;;;;5052267;28;20048;-76
2023/10/13 14:50:17;;;;;;;17.48;8.00;;;18.80;99.90;;;;;;5062952;28;20040;-76
2023/10/13 14:52:43;;;;;;;15.45;8.02;;;18.60;99.90;;;;;;5068563;28;20036;-76
2023/10/13 14:55:18;;;;;;;20.45;9.10;;;18.90;99.90;;;;;;5050919;28;20059;-76
2023/10/13 14:57:46;;;;;;;22.42;8.35;;;18.90;99.90;;;;;;5065088;28;20043;-76
2023/10/13 15:00:14;;;;;;;24.40;8.80;;;18.60;99.90;;;;;;5067176;28;20052;-76
2023/10/13 15:02:42;;;;;;;22.75;8.05;;;18.50;99.90;;;;;;5051932;28;20433;-76
2023/10/13 15:05:16;;;;;;;23.88;8.68;;;18.60;99.90;;;;;;5067608;28;20453;-76
2023/10/13 15:07:44;;;;;;;22.23;9.20;;;18.40;99.90;;;;;;5052365;28;20047;-76
2023/10/13 15:10:14;;;;;;;17.55;9.27;;;18.40;99.90;;;;;;5052277;28;20049;-76
2023/10/13 15:12:41;;;;;;;22.33;9.15;;;18.70;99.90;;;;;;5068924;28;20512;-76
2023/10/13 15:15:13;;;;;;;25.67;9.73;;;18.40;99.90;;;;;;5040378;28;20049;-75
2023/10/13 15:17:45;;;;;;;26.88;10.00;;;18.20;99.90;;;;;;5069454;28;20520;-75
2023/10/13 15:20:15;;;;;;;23.10;9.25;;;18.20;99.90;;;;;;5071005;28;20120;-75
2023/10/13 15:22:42;;;;;;;15.77;8.57;;;18.20;99.90;;;;;;5069479;28;20125;-74
2023/10/13 15:25:20;;;;;;;21.05;9.30;;;18.20;99.90;;;;;;5068843;28;20046;-74
2023/10/13 15:27:55;;;;;;;24.23;9.93;;;18.10;99.90;;;;;;5069269;28;20072;-74
2023/10/13 15:30:24;;;;;;;21.10;9.15;;;18.00;99.90;;;;;;5051865;28;20037;-75
2023/10/13 15:32:50;;;;;;;19.35;9.20;;;18.10;99.90;;;;;;5069077;28;20036;-75
2023/10/13 15:35:17;;;;;;;18.80;9.02;;;18.00;99.90;;;;;;5070343;28;20103;-75
2023/10/13 15:37:47;;;;;;;15.98;8.80;;;18.00;99.90;;;;;;5050198;28;20076;-74
2023/10/13 15:40:15;;;;;;;18.98;8.82;;;18.00;99.90;;;;;;5066774;28;20032;-75
2023/10/13 15:42:42;;;;;;;16.65;8.38;;;18.00;99.90;;;;;;5069560;28;20036;-74
2023/10/13 15:45:16;;;;;;;20.98;8.63;;;18.00;99.90;;;;;;5069834;28;20067;-74
2023/10/13 15:47:46;;;;;;;21.60;8.38;;;18.00;99.90;;;;;;5070860;28;20052;-73
2023/10/13 15:50:15;;;;;;;18.20;7.97;;;18.20;99.90;;;;;;5072826;28;20045;-74
2023/10/13 15:52:47;;;;;;;20.73;7.30;;;17.90;99.90;;;;;;5073525;28;20067;-74
2023/10/13 15:55:15;;;;;;;17.77;6.28;;;18.00;99.90;;;;;;5071276;28;20044;-75
2023/10/13 15:57:41;;;;;;;14.07;6.28;;;18.00;99.90;;;;;;5054450;28;20045;-75
2023/10/13 16:00:23;;;;;;;12.95;5.55;;;18.60;99.90;;;;;;5050876;28;20390;-74
2023/10/13 16:02:55;;;;;;;15.70;5.70;;;17.90;99.90;;;;;;5063405;28;20029;-75
2023/10/13 16:05:23;;;;;;;12.38;5.40;;;17.90;99.90;;;;;;5064145;28;20048;-75
2023/10/13 16:07:51;;;;;;;12.73;5.60;;;18.20;99.90;;;;;;5070360;28;20083;-76
2023/10/13 16:10:20;;;;;;;14.68;5.97;;;17.90;99.90;;;;;;5054107;28;20032;-74
2023/10/13 16:12:46;;;;;;;14.43;6.65;;;18.50;99.90;;;;;;5068933;28;20044;-75
2023/10/13 16:15:13;;;;;;;14.30;6.07;;;18.50;99.90;;;;;;5067276;28;20033;-75
2023/10/13 16:17:43;;;;;;;13.25;6.45;;;17.80;99.90;;;;;;5070044;28;20040;-75
2023/10/13 16:20:15;;;;;;;20.15;6.85;;;17.80;99.90;;;;;;5054350;28;20056;-76
2023/10/13 16:22:45;;;;;;;13.65;7.07;;;17.90;99.90;;;;;;5050824;28;20082;-76
2023/10/13 16:25:15;;;;;;;15.48;8.35;;;18.00;99.90;;;;;;5071377;28;20408;-76
2023/10/13 16:27:42;;;;;;;19.90;9.23;;;17.80;99.90;;;;;;5054707;28;20110;-76
2023/10/13 16:30:10;;;;;;;20.02;9.13;;;17.70;99.90;;;;;;5052740;28;20075;-75
2023/10/13 16:32:36;;;;;;;15.82;9.10;;;18.00;99.90;;;;;;5053621;28;20085;-75
2023/10/13 16:35:10;;;;;;;24.02;9.50;;;18.10;99.90;;;;;;5053880;28;20076;-75
2023/10/13 16:37:36;;;;;;;21.20;9.15;;;17.70;99.90;;;;;;5069257;28;20033;-75
2023/10/13 16:40:05;;;;;;;19.13;8.15;;;17.70;99.90;;;;;;5068677;28;20497;-75
2023/10/13 16:42:33;;;;;;;19.70;8.82;;;17.70;99.90;;;;;;5070951;28;20441;-74
2023/10/13 16:45:14;;;;;;;19.88;9.05;;;17.70;99.90;;;;;;5048099;28;20119;-75
2023/10/13 16:47:43;;;;;;;23.75;11.25;;;17.70;99.90;;;;;;5067753;28;20040;-74
2023/10/13 16:50:18;;;;;;;24.52;12.43;;;17.70;99.90;;;;;;5070413;28;20045;-74
2023/10/13 16:52:46;;;;;;;18.50;9.30;;;17.70;99.90;;;;;;5071748;28;20044;-74